Time;durP1;ratioP1;P1;durP2;ratioP2;P2;SDS_P1;SDS_P2;PMS_P1;PMS_P2;Temp;Humidity;BMP_temperature;BMP_pressure;BME280_temperature;BME280_humidity;BME280_pressure;Samples;Min_cycle;Max_cycle;Signal;HPM_P1;HPM_P2
2022/05/05 00:02:09;;;;;;;19.30;8.40;;;;;;;9.46;59.80;100440.42;105743;1274;22690;-49
2022/05/05 00:04:42;;;;;;;21.80;9.60;;;;;;;9.44;59.83;100438.41;105636;1274;25336;-53
2022/05/05 00:07:14;;;;;;;21.20;8.30;;;;;;;9.43;59.99;100444.84;105649;1274;22751;-50
2022/05/05 00:09:45;;;;;;;22.10;9.40;;;;;;;9.39;59.93;100443.34;105582;1274;22545;-52
2022/05/05 00:15:10;;;;;;;21.20;8.60;;;;;;;9.34;60.17;100444.61;105527;1274;22556;-51
2022/05/05 00:17:42;;;;;;;20.10;8.60;;;;;;;9.30;60.33;100443.45;105895;1274;22543;-49
2022/05/05 00:20:14;;;;;;;24.90;9.80;;;;;;;9.26;60.55;100439.42;105710;1274;25519;-50
2022/05/05 00:22:46;;;;;;;23.90;8.90;;;;;;;9.21;60.57;100441.41;105801;1274;22619;-50
2022/05/05 00:25:19;;;;;;;21.90;9.00;;;;;;;9.15;60.80;100440.84;105635;1274;22553;-49
2022/05/05 00:27:51;;;;;;;25.50;9.30;;;;;;;9.10;60.98;100441.25;105838;1274;22580;-50
2022/05/05 00:30:23;;;;;;;25.20;9.70;;;;;;;9.05;61.08;100442.89;105588;1274;25399;-52
2022/05/05 00:32:55;;;;;;;29.30;10.70;;;;;;;9.00;61.02;100445.70;105819;1274;22602;-53
2022/05/05 00:35:27;;;;;;;22.80;10.30;;;;;;;8.96;61.76;100444.52;106284;1274;24477;-49
2022/05/05 00:37:58;;;;;;;24.40;10.10;;;;;;;8.90;62.56;100444.30;105861;1274;22635;-49
2022/05/05 00:40:30;;;;;;;29.70;12.90;;;;;;;8.77;63.06;100440.63;105566;1274;24142;-51
2022/05/05 00:43:03;;;;;;;27.20;11.90;;;;;;;8.72;63.07;100441.49;105802;1274;26098;-50
2022/05/05 00:45:35;;;;;;;22.90;11.30;;;;;;;8.66;63.31;100441.02;105650;1274;25305;-49
2022/05/05 00:48:09;;;;;;;26.20;10.80;;;;;;;8.61;62.91;100442.86;105586;1274;23216;-54
2022/05/05 00:50:41;;;;;;;26.20;11.00;;;;;;;8.58;62.82;100441.63;105653;1274;22700;-50
2022/05/05 00:53:13;;;;;;;24.00;10.80;;;;;;;8.57;62.60;100440.23;105782;1274;22541;-50
2022/05/05 00:55:46;;;;;;;25.90;12.70;;;;;;;8.57;62.60;100446.04;105597;1275;22592;-50
2022/05/05 00:58:18;;;;;;;25.20;10.40;;;;;;;8.55;62.58;100437.94;105688;1274;22721;-54
2022/05/05 01:00:50;;;;;;;25.30;10.60;;;;;;;8.53;62.51;100438.08;105548;1274;22553;-53
2022/05/05 01:03:22;;;;;;;18.50;9.40;;;;;;;8.52;62.34;100439.41;105565;1273;22545;-51
2022/05/05 01:05:54;;;;;;;21.90;9.80;;;;;;;8.51;62.41;100439.35;105544;1274;25325;-50
2022/05/05 01:08:27;;;;;;;28.60;11.50;;;;;;;8.51;62.48;100440.80;105583;1274;23984;-49
2022/05/05 01:10:59;;;;;;;23.80;10.50;;;;;;;8.47;63.04;100441.75;105583;1274;22557;-50
2022/05/05 01:13:33;;;;;;;25.50;11.00;;;;;;;8.42;63.36;100440.22;105565;1274;22723;-49
2022/05/05 01:16:08;;;;;;;23.30;11.00;;;;;;;8.38;63.36;100438.31;105529;1274;22551;-51
2022/05/05 01:18:41;;;;;;;23.90;11.00;;;;;;;8.34;63.49;100439.27;105594;1274;22551;-53
2022/05/05 01:21:13;;;;;;;25.20;11.70;;;;;;;8.28;63.58;100439.44;105550;1274;22547;-50
2022/05/05 01:23:46;;;;;;;24.40;10.60;;;;;;;8.24;63.62;100440.90;105642;1274;22571;-51
2022/05/05 01:29:07;;;;;;;21.80;9.40;;;;;;;8.21;63.27;100446.83;105473;1274;22701;-53
2022/05/05 01:31:39;;;;;;;20.80;9.40;;;;;;;8.20;63.37;100449.57;105408;1274;23967;-52
2022/05/05 01:34:11;;;;;;;28.10;10.80;;;;;;;8.16;63.53;100453.93;105798;1274;22891;-51
2022/05/05 01:36:43;;;;;;;23.00;9.50;;;;;;;8.13;64.00;100452.61;105466;1274;22727;-51
2022/05/05 01:39:15;;;;;;;24.30;11.40;;;;;;;8.09;64.43;100450.79;105496;1274;22608;-50
2022/05/05 01:41:47;;;;;;;24.80;10.70;;;;;;;8.03;64.58;100449.20;105498;1274;24251;-53
2022/05/05 01:44:19;;;;;;;28.60;11.30;;;;;;;7.97;64.45;100453.98;105533;1274;22630;-52
2022/05/05 01:46:53;;;;;;;22.50;10.10;;;;;;;7.90;64.50;100453.30;105529;1274;23294;-51
2022/05/05 01:49:26;;;;;;;21.50;10.30;;;;;;;7.82;64.78;100459.96;105907;1274;26660;-50
2022/05/05 01:51:59;;;;;;;20.60;9.10;;;;;;;7.74;64.73;100466.31;105587;1274;26271;-48
2022/05/05 01:54:31;;;;;;;26.90;9.70;;;;;;;7.72;64.43;100466.39;105752;1272;24438;-52
2022/05/05 01:57:03;;;;;;;21.70;9.70;;;;;;;7.72;64.31;100463.91;105670;1274;22549;-48
2022/05/05 01:59:35;;;;;;;21.60;8.90;;;;;;;7.72;64.47;100459.65;105774;1274;22584;-49
2022/05/05 02:02:08;;;;;;;23.90;9.50;;;;;;;7.70;64.25;100461.04;105608;1274;25201;-50
2022/05/05 02:04:40;;;;;;;21.90;8.80;;;;;;;7.71;64.12;100465.40;106256;1266;24214;-62
2022/05/05 02:07:16;;;;;;;20.00;9.00;;;;;;;7.70;64.32;100467.23;105714;1273;22535;-63
2022/05/05 02:09:48;;;;;;;22.40;10.00;;;;;;;7.68;64.54;100465.59;105593;1273;24292;-62
2022/05/05 02:12:20;;;;;;;22.10;8.70;;;;;;;7.66;64.56;100466.14;107889;1274;22550;-63
2022/05/05 02:14:52;;;;;;;22.10;11.00;;;;;;;7.65;64.88;100464.10;105714;1274;24553;-62
2022/05/05 02:17:24;;;;;;;20.90;10.80;;;;;;;7.63;65.78;100463.37;105533;1274;25333;-62
2022/05/05 02:19:55;;;;;;;23.90;11.30;;;;;;;7.61;65.93;100465.70;105653;1274;24379;-62
2022/05/05 02:22:28;;;;;;;21.80;10.70;;;;;;;7.59;65.65;100465.14;105589;1274;22591;-62
2022/05/05 02:25:01;;;;;;;20.00;9.40;;;;;;;7.57;65.51;100470.68;105583;1274;22996;-62
2022/05/05 02:27:45;;;;;;;23.70;11.00;;;;;;;7.56;65.70;100472.39;105587;1274;25494;-62
2022/05/05 02:30:16;;;;;;;26.40;12.60;;;;;;;7.52;65.99;100462.38;105524;1274;24469;-62
2022/05/05 02:32:49;;;;;;;25.90;12.50;;;;;;;7.48;66.03;100466.48;106073;1273;22507;-63
2022/05/05 02:35:21;;;;;;;25.30;11.90;;;;;;;7.45;66.47;100457.87;105606;1274;25368;-62
2022/05/05 02:40:43;;;;;;;27.00;11.80;;;;;;;7.40;66.75;100459.72;105504;1274;22528;-62
2022/05/05 02:43:14;;;;;;;24.80;11.00;;;;;;;7.36;67.07;100453.02;105534;1274;22540;-64
2022/05/05 02:45:48;;;;;;;26.80;13.00;;;;;;;7.31;66.93;100450.34;105704;1274;25263;-62
2022/05/05 02:48:20;;;;;;;25.70;12.60;;;;;;;7.29;67.12;100449.31;105608;1274;24291;-63
2022/05/05 02:50:51;;;;;;;25.40;11.50;;;;;;;7.27;66.84;100452.40;105733;1274;22568;-67
2022/05/05 02:56:12;;;;;;;24.00;10.90;;;;;;;7.16;67.22;100458.98;105518;1274;24530;-62
2022/05/05 02:58:43;;;;;;;25.30;12.20;;;;;;;7.11;67.20;100456.29;105570;1274;22558;-62
2022/05/05 03:01:15;;;;;;;27.10;12.00;;;;;;;7.09;67.63;100456.92;105554;1274;22530;-61
2022/05/05 03:03:49;;;;;;;27.50;12.40;;;;;;;7.06;67.94;100456.49;105567;1274;22562;-63
2022/05/05 03:06:20;;;;;;;24.50;11.50;;;;;;;7.01;67.83;100460.48;105494;1274;24327;-62
2022/05/05 03:08:52;;;;;;;20.70;10.10;;;;;;;6.95;67.89;100463.06;105594;1274;25272;-62
2022/05/05 03:11:25;;;;;;;23.40;11.10;;;;;;;6.90;68.00;100459.43;105596;1274;24315;-62
2022/05/05 03:13:58;;;;;;;22.70;9.90;;;;;;;6.86;67.50;100458.21;105594;1274;24581;-62
2022/05/05 03:16:30;;;;;;;26.70;10.80;;;;;;;6.85;67.59;100459.98;105723;1274;25472;-62
2022/05/05 03:19:02;;;;;;;23.30;10.10;;;;;;;6.85;67.32;100462.44;105637;1274;25374;-62
2022/05/05 03:21:34;;;;;;;29.00;12.10;;;;;;;6.85;67.76;100454.98;105553;1274;25262;-62
2022/05/05 03:24:06;;;;;;;24.10;11.70;;;;;;;6.82;67.92;100458.34;105512;1274;24307;-62
2022/05/05 03:26:38;;;;;;;27.20;11.90;;;;;;;6.80;67.54;100460.48;105706;1274;25422;-63
2022/05/05 03:29:10;;;;;;;22.50;10.70;;;;;;;6.80;67.70;100459.98;105675;1274;25349;-62
2022/05/05 03:31:44;;;;;;;28.70;13.40;;;;;;;6.80;67.44;100466.10;105564;1273;24233;-63
2022/05/05 03:34:16;;;;;;;26.10;12.90;;;;;;;6.80;68.07;100462.05;105918;1273;22566;-62
2022/05/05 03:36:47;;;;;;;28.20;13.60;;;;;;;6.78;68.22;100461.05;105697;1273;25003;-62
2022/05/05 03:39:19;;;;;;;31.00;13.80;;;;;;;6.76;67.94;100465.93;105625;1273;25254;-63
2022/05/05 03:41:51;;;;;;;29.10;13.00;;;;;;;6.76;68.35;100466.33;105619;1274;22645;-63
2022/05/05 03:44:23;;;;;;;26.60;12.50;;;;;;;6.73;68.56;100465.07;105646;1274;22676;-62
2022/05/05 03:46:55;;;;;;;28.70;13.40;;;;;;;6.72;68.59;100471.47;105561;1274;24109;-62
2022/05/05 03:49:26;;;;;;;26.00;12.10;;;;;;;6.70;68.42;100474.28;105978;1274;22710;-62
2022/05/05 03:51:58;;;;;;;27.30;11.80;;;;;;;6.70;68.62;100472.41;105433;1274;24528;-62
2022/05/05 03:54:30;;;;;;;23.90;11.50;;;;;;;6.69;68.60;100479.27;106485;1274;22556;-61
2022/05/05 03:57:02;;;;;;;24.30;12.10;;;;;;;6.69;68.55;100484.73;106597;1273;24272;-62
2022/05/05 03:59:34;;;;;;;27.50;12.20;;;;;;;6.70;68.93;100482.70;105881;1274;22619;-63
2022/05/05 04:02:07;;;;;;;36.70;14.20;;;;;;;6.72;69.11;100482.27;105812;1274;22726;-63
2022/05/05 04:04:39;;;;;;;30.40;15.30;;;;;;;6.75;69.33;100479.13;105915;1273;24323;-62
2022/05/05 04:07:11;;;;;;;25.70;14.20;;;;;;;6.76;69.52;100483.04;105505;1273;22628;-62
2022/05/05 04:09:44;;;;;;;33.30;15.90;;;;;;;6.79;69.94;100487.55;105663;1273;22638;-62
2022/05/05 04:12:16;;;;;;;28.70;14.70;;;;;;;6.79;70.02;100489.52;105579;1273;22543;-61
2022/05/05 04:14:48;;;;;;;26.80;13.80;;;;;;;6.81;70.06;100492.95;105748;1273;22939;-63
2022/05/05 04:17:19;;;;;;;31.00;14.10;;;;;;;6.84;69.80;100493.83;105431;1273;24434;-62
2022/05/05 04:19:51;;;;;;;30.20;15.20;;;;;;;6.86;69.71;100494.44;105681;1273;22785;-62
2022/05/05 04:22:23;;;;;;;30.10;14.40;;;;;;;6.91;70.05;100497.67;105587;1274;25414;-62
2022/05/05 04:24:54;;;;;;;25.30;13.30;;;;;;;6.95;69.81;100497.33;105669;1274;22831;-62
2022/05/05 04:27:26;;;;;;;29.20;14.10;;;;;;;6.99;69.80;100499.80;105506;1274;22560;-62
2022/05/05 04:29:58;;;;;;;30.10;15.80;;;;;;;7.03;70.30;100505.27;105677;1274;22578;-63
2022/05/05 04:32:30;;;;;;;31.90;16.90;;;;;;;7.08;70.56;100510.89;105823;1274;24473;-62
2022/05/05 04:35:02;;;;;;;32.70;17.00;;;;;;;7.13;71.14;100512.70;105793;1274;22541;-62
2022/05/05 04:37:33;;;;;;;31.60;15.90;;;;;;;7.18;70.86;100510.08;105591;1274;24338;-62
2022/05/05 04:40:07;;;;;;;31.90;15.50;;;;;;;7.23;70.93;100510.99;108341;1273;25336;-62
2022/05/05 04:42:39;;;;;;;34.90;19.40;;;;;;;7.31;71.06;100516.03;105601;1273;22554;-62
2022/05/05 04:45:12;;;;;;;34.60;18.60;;;;;;;7.39;72.00;100516.35;106041;1274;24247;-62
2022/05/05 04:47:44;;;;;;;33.70;19.40;;;;;;;7.45;71.96;100518.74;106375;1274;23269;-62
2022/05/05 04:50:16;;;;;;;34.60;16.90;;;;;;;7.52;72.19;100515.23;105686;1274;22639;-62
2022/05/05 04:52:48;;;;;;;39.70;20.80;;;;;;;7.61;72.58;100512.82;105657;1273;22614;-63
2022/05/05 04:55:20;;;;;;;39.10;20.60;;;;;;;7.70;73.03;100512.34;105737;1274;22538;-62
2022/05/05 04:57:52;;;;;;;41.30;22.60;;;;;;;7.77;72.89;100515.92;105648;1274;24390;-63
2022/05/05 05:00:24;;;;;;;38.40;19.80;;;;;;;7.84;72.84;100520.71;105666;1274;22556;-62
2022/05/05 05:02:56;;;;;;;42.70;21.30;;;;;;;7.93;72.83;100519.74;105724;1274;22559;-63
2022/05/05 05:05:28;;;;;;;39.10;21.40;;;;;;;8.02;73.23;100524.00;105838;1273;24448;-62
2022/05/05 05:08:00;;;;;;;39.50;22.90;;;;;;;8.11;73.37;100526.90;105640;1273;24400;-61
2022/05/05 05:10:31;;;;;;;46.20;22.90;;;;;;;8.24;73.28;100527.31;105690;1274;25492;-61
2022/05/05 05:13:04;;;;;;;40.80;23.20;;;;;;;8.36;73.55;100525.81;105666;1274;25424;-62
2022/05/05 05:15:35;;;;;;;43.60;24.50;;;;;;;8.48;73.73;100522.16;105530;1274;25378;-61
2022/05/05 05:18:08;;;;;;;44.30;24.80;;;;;;;8.60;74.11;100520.33;105706;1274;22532;-62
2022/05/05 05:20:44;;;;;;;52.60;25.40;;;;;;;8.74;74.14;100520.14;105746;1273;22655;-62
2022/05/05 05:23:16;;;;;;;43.20;25.20;;;;;;;8.90;74.18;100519.79;105740;1273;24255;-62
2022/05/05 05:25:49;;;;;;;53.80;27.70;;;;;;;9.05;74.33;100515.27;105579;1274;25971;-62
2022/05/05 05:28:20;;;;;;;46.50;29.10;;;;;;;9.18;74.32;100519.73;105627;1273;22632;-62
2022/05/05 05:30:52;;;;;;;45.90;28.50;;;;;;;9.31;74.27;100522.13;105690;1273;24398;-62
2022/05/05 05:33:24;;;;;;;45.70;27.60;;;;;;;9.45;74.46;100525.41;105684;1274;23071;-62
2022/05/05 05:35:56;;;;;;;54.10;30.80;;;;;;;9.61;74.44;100521.46;105548;1273;22623;-62
2022/05/05 05:38:28;;;;;;;51.00;30.70;;;;;;;9.73;74.49;100522.14;106719;1274;26606;-62
2022/05/05 05:40:59;;;;;;;44.30;30.20;;;;;;;9.87;74.58;100524.97;105643;1274;25497;-63
2022/05/05 05:43:31;;;;;;;47.90;28.40;;;;;;;10.00;74.81;100524.95;105632;1274;22605;-63
2022/05/05 05:46:03;;;;;;;50.10;32.90;;;;;;;10.11;74.72;100527.77;105780;1274;22537;-61
2022/05/05 05:48:34;;;;;;;53.40;35.20;;;;;;;10.23;74.77;100527.92;105679;1274;25481;-63
2022/05/05 05:51:06;;;;;;;50.20;31.80;;;;;;;10.35;74.78;100530.02;105753;1274;22632;-63
2022/05/05 05:53:38;;;;;;;51.60;32.40;;;;;;;10.45;74.71;100528.56;105709;1274;25469;-63
2022/05/05 05:56:10;;;;;;;46.40;29.60;;;;;;;10.57;75.03;100529.25;105776;1274;22547;-62
2022/05/05 05:58:42;;;;;;;47.90;29.40;;;;;;;10.72;74.85;100525.94;105664;1274;24315;-63
2022/05/05 06:01:15;;;;;;;52.70;31.50;;;;;;;10.86;74.88;100529.21;105611;1275;22521;-63
2022/05/05 06:03:57;;;;;;;47.50;30.50;;;;;;;11.00;74.77;100524.42;105744;1274;23045;-62
2022/05/05 06:06:29;;;;;;;55.00;30.50;;;;;;;11.17;74.84;100523.11;105676;1274;23928;-63
2022/05/05 06:09:01;;;;;;;50.00;31.50;;;;;;;11.30;74.55;100526.15;105808;1274;22591;-63
2022/05/05 06:11:33;;;;;;;46.20;29.10;;;;;;;11.43;74.38;100526.14;105818;1274;22707;-63
2022/05/05 06:14:05;;;;;;;44.20;27.10;;;;;;;11.58;74.48;100527.70;105779;1274;24510;-63
2022/05/05 06:16:37;;;;;;;45.00;26.30;;;;;;;11.74;74.41;100536.45;106496;1274;22541;-63
2022/05/05 06:19:09;;;;;;;44.60;28.30;;;;;;;11.89;74.16;100535.09;105824;1274;24891;-63
2022/05/05 06:21:40;;;;;;;40.00;25.60;;;;;;;12.05;74.17;100533.61;105879;1274;22666;-63
2022/05/05 06:24:12;;;;;;;45.00;25.60;;;;;;;12.21;73.69;100535.81;105708;1274;22583;-63
2022/05/05 06:26:44;;;;;;;42.60;25.80;;;;;;;12.31;73.41;100528.70;106448;1274;24336;-65
2022/05/05 06:29:17;;;;;;;45.50;27.20;;;;;;;12.43;73.62;100529.21;105681;1274;25253;-63
2022/05/05 06:31:49;;;;;;;40.30;25.60;;;;;;;12.59;73.38;100531.39;107694;1274;22696;-63
2022/05/05 06:34:22;;;;;;;42.10;26.60;;;;;;;12.74;73.30;100536.16;105659;1274;24318;-63
2022/05/05 06:36:55;;;;;;;45.30;27.50;;;;;;;12.89;72.98;100537.39;105635;1274;22531;-63
2022/05/05 06:39:26;;;;;;;43.60;27.40;;;;;;;13.04;72.82;100536.14;105826;1274;22731;-64
2022/05/05 06:41:58;;;;;;;44.50;25.80;;;;;;;13.19;72.45;100537.31;105891;1274;22598;-63
2022/05/05 06:44:30;;;;;;;42.40;24.20;;;;;;;13.34;72.41;100536.29;105903;1274;22531;-65
2022/05/05 06:47:03;;;;;;;38.90;23.20;;;;;;;13.49;72.01;100537.95;105703;1273;25364;-63
2022/05/05 06:49:38;;;;;;;36.70;21.60;;;;;;;13.65;71.98;100533.80;105767;1274;25378;-63
2022/05/05 06:52:10;;;;;;;38.80;23.00;;;;;;;13.82;71.58;100535.77;105709;1274;24342;-63
2022/05/05 06:54:42;;;;;;;40.00;22.90;;;;;;;13.96;71.49;100530.75;105697;1273;22553;-63
2022/05/05 06:57:14;;;;;;;38.70;21.80;;;;;;;14.10;71.19;100525.89;105662;1273;24448;-63
2022/05/05 06:59:46;;;;;;;38.00;22.40;;;;;;;14.23;70.90;100525.05;105708;1274;24535;-64
2022/05/05 07:02:18;;;;;;;38.20;21.70;;;;;;;14.36;70.53;100524.16;105684;1274;22560;-64
2022/05/05 07:07:39;;;;;;;38.40;23.10;;;;;;;14.67;69.70;100517.80;105404;1279;22791;-65
2022/05/05 07:13:00;;;;;;;34.70;20.70;;;;;;;14.97;69.05;100521.87;105339;1279;23923;-64
2022/05/05 07:15:32;;;;;;;30.80;19.30;;;;;;;15.12;68.61;100524.41;105468;1279;22627;-64
2022/05/05 07:18:04;;;;;;;35.60;19.70;;;;;;;15.24;68.35;100522.17;105410;1279;22544;-64
2022/05/05 07:20:37;;;;;;;35.70;21.50;;;;;;;15.40;68.02;100528.08;105460;1279;25735;-64
2022/05/05 07:23:12;;;;;;;30.00;18.80;;;;;;;15.56;67.77;100522.52;105418;1279;24449;-64
2022/05/05 07:25:45;;;;;;;32.50;19.70;;;;;;;15.70;67.06;100521.64;105533;1278;22763;-64
2022/05/05 07:28:18;;;;;;;32.40;19.80;;;;;;;15.84;67.16;100527.20;105486;1278;25601;-64
2022/05/05 07:30:50;;;;;;;33.50;19.00;;;;;;;15.98;66.88;100527.23;105425;1279;24415;-65
2022/05/05 07:33:24;;;;;;;34.90;19.10;;;;;;;16.12;66.21;100529.86;105434;1279;22552;-64
2022/05/05 07:35:56;;;;;;;26.50;17.00;;;;;;;16.29;66.10;100526.18;105360;1279;22751;-64
2022/05/05 07:38:28;;;;;;;30.40;16.80;;;;;;;16.48;65.24;100532.30;105457;1279;22562;-64
2022/05/05 07:41:00;;;;;;;30.80;17.40;;;;;;;16.65;64.92;100530.21;105436;1279;24500;-65
2022/05/05 07:43:31;;;;;;;28.80;16.00;;;;;;;16.79;64.45;100526.19;105496;1279;25322;-65
2022/05/05 07:46:04;;;;;;;28.10;16.50;;;;;;;16.90;64.26;100527.35;105584;1274;24218;-64
2022/05/05 07:48:35;;;;;;;29.40;15.60;;;;;;;16.99;63.86;100528.35;105664;1274;22564;-64
2022/05/05 07:51:07;;;;;;;25.40;15.00;;;;;;;17.12;63.21;100526.30;105722;1274;24459;-66
2022/05/05 07:53:39;;;;;;;27.00;15.50;;;;;;;17.27;62.93;100531.35;105737;1274;24380;-64
2022/05/05 07:56:25;;;;;;;24.60;14.60;;;;;;;17.37;62.51;100526.79;105700;1274;22562;-65
2022/05/05 07:59:03;;;;;;;26.50;14.80;;;;;;;17.43;61.83;100529.16;105685;1274;22610;-65
2022/05/05 08:01:38;;;;;;;23.80;13.90;;;;;;;17.55;61.32;100531.61;105854;1274;24326;-64
2022/05/05 08:04:10;;;;;;;23.90;13.50;;;;;;;17.64;60.85;100531.52;105722;1274;25552;-64
2022/05/05 08:06:41;;;;;;;19.10;10.60;;;;;;;17.77;60.90;100532.42;105897;1274;25436;-64
2022/05/05 08:09:16;;;;;;;25.10;12.40;;;;;;;17.96;60.17;100533.73;105789;1275;22524;-65
2022/05/05 08:11:55;;;;;;;20.60;11.10;;;;;;;18.10;59.50;100533.77;105958;1275;23252;-68
2022/05/05 08:14:27;;;;;;;21.50;10.50;;;;;;;18.20;59.10;100535.21;105849;1274;22626;-65
2022/05/05 08:16:59;;;;;;;19.10;10.50;;;;;;;18.29;58.66;100536.64;105738;1274;24215;-66
2022/05/05 08:19:31;;;;;;;19.70;9.50;;;;;;;18.38;58.50;100533.80;105777;1274;22538;-65
2022/05/05 08:22:03;;;;;;;20.70;8.50;;;;;;;18.45;57.55;100536.14;106000;1274;24844;-65
2022/05/05 08:30:17;;;;;;;21.90;11.50;;;;;;;18.71;56.08;100537.70;105528;1278;22990;-65
2022/05/05 08:32:48;;;;;;;21.30;11.20;;;;;;;18.76;55.66;100536.52;105522;1279;22564;-66
2022/05/05 08:35:22;;;;;;;27.70;11.60;;;;;;;18.81;55.53;100535.39;105528;1279;23007;-66
2022/05/05 08:37:55;;;;;;;25.40;11.20;;;;;;;18.90;55.52;100538.34;105345;1279;22563;-67
2022/05/05 08:40:28;;;;;;;23.50;10.20;;;;;;;18.99;55.57;100538.35;105448;1279;24395;-65
2022/05/05 08:43:00;;;;;;;24.50;11.00;;;;;;;19.09;54.66;100533.66;105758;1279;22888;-65
2022/05/05 08:45:34;;;;;;;18.80;11.20;;;;;;;19.17;54.29;100534.24;105333;1279;22684;-66
2022/05/05 08:48:11;;;;;;;21.00;11.30;;;;;;;19.27;53.63;100531.70;105572;1279;24816;-66
2022/05/05 08:50:46;;;;;;;23.00;11.50;;;;;;;19.31;53.01;100532.17;105529;1279;22527;-65
2022/05/05 08:53:26;;;;;;;20.20;9.40;;;;;;;19.37;52.99;100531.11;105557;1279;22543;-64
2022/05/05 08:55:58;;;;;;;22.40;10.30;;;;;;;19.47;52.71;100528.46;105464;1279;26515;-65
2022/05/05 08:58:38;;;;;;;21.70;10.70;;;;;;;19.61;52.39;100525.39;105406;1279;25342;-64
2022/05/05 09:01:10;;;;;;;22.80;10.40;;;;;;;19.75;51.85;100529.42;105429;1279;22625;-64
2022/05/05 09:03:43;;;;;;;23.70;11.00;;;;;;;19.86;51.45;100531.16;105512;1279;25668;-65
2022/05/05 09:06:42;;;;;;;23.40;9.40;;;;;;;19.95;51.25;100530.73;106158;1264;85813;-80
2022/05/05 09:09:33;;;;;;;18.90;9.00;;;;;;;20.04;50.62;100528.95;107336;1273;22541;-84
2022/05/05 09:12:25;;;;;;;23.00;9.00;;;;;;;20.19;50.08;100535.33;107471;1273;22544;-82
2022/05/05 09:15:09;;;;;;;15.90;9.20;;;;;;;20.27;49.46;100535.29;107149;1274;22537;-81
2022/05/05 09:17:42;;;;;;;18.00;9.10;;;;;;;20.32;49.60;100534.06;107073;1274;22567;-79
2022/05/05 09:20:14;;;;;;;16.60;7.60;;;;;;;20.44;49.03;100533.59;106983;1275;22604;-78
2022/05/05 09:22:52;;;;;;;17.50;8.20;;;;;;;20.50;48.32;100533.44;106680;1275;22571;-80
2022/05/05 09:25:24;;;;;;;18.00;8.10;;;;;;;20.55;48.15;100533.89;107063;1275;22577;-81
2022/05/05 09:27:55;;;;;;;17.90;7.70;;;;;;;20.63;47.92;100534.05;107145;1276;24280;-80
2022/05/05 09:30:28;;;;;;;19.10;8.90;;;;;;;20.75;48.10;100532.45;107096;1276;22557;-78
2022/05/05 09:33:01;;;;;;;17.70;9.00;;;;;;;20.86;47.68;100533.69;107552;1276;24224;-80
2022/05/05 09:35:32;;;;;;;17.00;8.90;;;;;;;20.91;46.82;100533.55;107655;1276;22536;-82
2022/05/05 09:38:03;;;;;;;20.70;9.60;;;;;;;20.87;46.72;100531.50;107409;1275;22648;-81
2022/05/05 09:41:02;;;;;;;18.10;8.50;;;;;;;20.89;47.03;100528.22;107195;1274;23942;-81
2022/05/05 09:43:33;;;;;;;16.60;7.50;;;;;;;20.97;47.03;100527.35;107121;1276;22640;-80
2022/05/05 09:46:30;;;;;;;18.50;8.20;;;;;;;21.08;46.45;100531.45;103175;1275;5427073;-80
2022/05/05 09:49:11;;;;;;;14.70;6.40;;;;;;;21.19;45.79;100530.05;107165;1276;22652;-80
2022/05/05 09:57:39;;;;;;;13.50;7.30;;;;;;;21.25;45.53;100524.56;107288;1276;24298;-81
2022/05/05 09:57:42;;;;;;;16.20;6.30;;;;;;;21.38;45.10;100530.17;107085;1275;22570;-81
2022/05/05 10:00:43;;;;;;;13.90;5.70;;;;;;;21.45;44.76;100531.20;107036;1276;26250;-80
2022/05/05 10:06:17;;;;;;;10.70;4.40;;;;;;;21.52;43.84;100530.96;106997;1275;22595;-80
2022/05/05 10:08:53;;;;;;;11.80;4.20;;;;;;;21.59;43.94;100529.66;107227;1273;25280;-80
2022/05/05 10:11:25;;;;;;;14.40;5.10;;;;;;;21.65;43.62;100525.80;107286;1273;22614;-80
2022/05/05 10:13:57;;;;;;;12.00;5.40;;;;;;;21.67;43.23;100526.58;107188;1273;22532;-79
2022/05/05 10:16:30;;;;;;;14.50;6.30;;;;;;;21.64;42.86;100524.04;106933;1273;22589;-79
2022/05/05 10:19:02;;;;;;;9.80;4.40;;;;;;;21.64;43.07;100522.91;106897;1273;25286;-78
2022/05/05 10:21:46;;;;;;;10.70;4.30;;;;;;;21.70;43.08;100520.77;106912;1273;24201;-79
2022/05/05 10:24:20;;;;;;;15.20;5.30;;;;;;;21.74;42.35;100523.10;107043;1273;22596;-79
2022/05/05 10:26:53;;;;;;;10.10;4.30;;;;;;;21.69;42.42;100518.10;106826;1273;25369;-81
2022/05/05 10:29:41;;;;;;;11.60;3.40;;;;;;;21.71;41.91;100513.20;107425;1273;22553;-79
2022/05/05 10:32:16;;;;;;;7.90;2.70;;;;;;;21.74;41.79;100514.28;107416;1273;25554;-77
2022/05/05 10:34:52;;;;;;;12.10;3.50;;;;;;;21.85;41.71;100511.98;106893;1273;23861;-78
2022/05/05 10:37:32;;;;;;;10.50;3.60;;;;;;;21.92;41.56;100514.06;107034;1273;22584;-78
2022/05/05 10:40:08;;;;;;;8.20;3.40;;;;;;;21.97;41.52;100512.23;106775;1273;22558;-78
2022/05/05 10:42:43;;;;;;;11.80;3.30;;;;;;;22.07;41.78;100511.21;107099;1273;24283;-78
2022/05/05 10:45:19;;;;;;;10.40;3.30;;;;;;;22.16;41.44;100508.42;106948;1273;22866;-78
2022/05/05 10:48:31;;;;;;;12.30;3.60;;;;;;;22.22;41.08;100508.64;106720;1274;23177;-79
2022/05/05 10:51:09;;;;;;;9.00;4.00;;;;;;;22.20;40.15;100504.14;106938;1273;22574;-78
2022/05/05 10:53:45;;;;;;;11.60;4.10;;;;;;;22.09;40.00;100500.73;106970;1273;22552;-78
2022/05/05 10:56:32;;;;;;;9.90;3.30;;;;;;;22.09;40.53;100499.75;106965;1273;22923;-77
2022/05/05 10:59:08;;;;;;;10.40;2.60;;;;;;;22.18;39.86;100502.11;107003;1273;22598;-79
2022/05/05 11:02:04;;;;;;;7.90;2.70;;;;;;;22.25;39.88;100497.17;107029;1273;24241;-78
2022/05/05 11:04:35;;;;;;;9.40;3.50;;;;;;;22.30;39.07;100492.44;106929;1273;22559;-78
2022/05/05 11:07:38;;;;;;;8.30;2.40;;;;;;;22.28;39.27;100491.90;106986;1273;23991;-78
2022/05/05 11:10:48;;;;;;;7.70;2.70;;;;;;;22.32;39.01;100487.85;106904;1273;22615;-79
2022/05/05 11:13:39;;;;;;;8.60;2.70;;;;;;;22.44;39.40;100482.38;107075;1273;24159;-78
2022/05/05 11:22:24;;;;;;;9.50;2.70;;;;;;;22.70;38.49;100482.08;106922;1273;22534;-78
2022/05/05 11:24:56;;;;;;;8.50;2.90;;;;;;;22.78;38.31;100485.13;106825;1273;22477;-78
2022/05/05 11:27:27;;;;;;;7.80;2.40;;;;;;;22.81;38.48;100479.98;106835;1273;22538;-79
2022/05/05 11:30:00;;;;;;;10.20;3.00;;;;;;;22.86;38.40;100480.56;106972;1273;24240;-78
2022/05/05 11:32:33;;;;;;;8.10;2.40;;;;;;;22.92;38.01;100481.85;107066;1273;23388;-78
2022/05/05 11:35:06;;;;;;;7.60;2.60;;;;;;;22.94;37.34;100474.80;106848;1273;24336;-77
2022/05/05 11:37:43;;;;;;;9.10;2.20;;;;;;;22.86;36.65;100473.84;106580;1273;24375;-78
2022/05/05 11:40:15;;;;;;;6.60;2.50;;;;;;;22.76;36.70;100469.56;106702;1273;24182;-77
2022/05/05 11:45:41;;;;;;;6.10;2.20;;;;;;;22.73;36.61;100468.88;106641;1273;24244;-78
2022/05/05 11:48:19;;;;;;;9.20;2.60;;;;;;;22.74;36.76;100469.73;107065;1273;22649;-77
2022/05/05 11:50:50;;;;;;;7.40;2.10;;;;;;;22.79;36.92;100472.16;107029;1273;24231;-78
2022/05/05 11:53:22;;;;;;;8.90;2.60;;;;;;;22.87;36.67;100471.91;106880;1273;25254;-77
2022/05/05 11:55:55;;;;;;;6.70;2.20;;;;;;;22.88;36.41;100469.03;106872;1273;22474;-77
2022/05/05 12:04:22;;;;;;;6.70;2.40;;;;;;;23.16;36.41;100468.63;106619;1276;22583;-77
2022/05/05 12:06:54;;;;;;;5.10;2.00;;;;;;;23.21;36.44;100468.70;106614;1276;24085;-77
2022/05/05 12:09:25;;;;;;;10.20;2.00;;;;;;;23.23;36.15;100462.63;106461;1276;23534;-77
2022/05/05 12:11:57;;;;;;;7.30;1.80;;;;;;;23.25;36.30;100466.52;106407;1276;22589;-77
2022/05/05 12:14:39;;;;;;;8.00;1.70;;;;;;;23.27;35.52;100460.33;106514;1276;24340;-77
2022/05/05 12:17:16;;;;;;;7.80;2.30;;;;;;;23.25;35.97;100468.42;106444;1276;22483;-78
2022/05/05 12:19:50;;;;;;;10.20;2.40;;;;;;;23.22;35.60;100465.51;106601;1277;24497;-77
2022/05/05 12:22:29;;;;;;;12.00;2.40;;;;;;;23.16;35.47;100465.37;106702;1277;22548;-77
2022/05/05 12:25:12;;;;;;;8.30;2.50;;;;;;;23.21;36.03;100467.83;106539;1279;24457;-77